createdAt,value
2022-12-18T00:00:07.854Z,33.58
2022-12-18T00:02:35.924Z,39.50
2022-12-18T00:05:05.707Z,37.65
2022-12-18T00:07:33.692Z,36.53
2022-12-18T00:10:01.600Z,41.40
2022-12-18T00:12:30.150Z,34.72
2022-12-18T00:14:58.407Z,32.42
2022-12-18T00:17:26.392Z,36.75
2022-12-18T00:19:54.358Z,36.20
2022-12-18T00:22:23.737Z,33.60
2022-12-18T00:24:51.754Z,37.00
2022-12-18T00:27:19.767Z,37.42
2022-12-18T00:29:47.752Z,35.80
2022-12-18T00:32:15.735Z,34.63
2022-12-18T00:34:43.711Z,38.00
2022-12-18T00:37:15.568Z,34.70
2022-12-18T00:39:47.670Z,29.98
2022-12-18T00:42:32.868Z,31.98
2022-12-18T00:45:00.856Z,35.30
2022-12-18T00:47:28.812Z,39.15
2022-12-18T00:49:56.782Z,36.70
2022-12-18T00:52:24.836Z,35.58
2022-12-18T00:54:54.194Z,34.70
2022-12-18T00:57:22.200Z,36.78
2022-12-18T00:59:50.382Z,34.92
2022-12-18T01:02:18.665Z,37.10
2022-12-18T01:04:46.863Z,36.45
2022-12-18T01:07:14.826Z,38.72
2022-12-18T01:09:42.773Z,36.78
2022-12-18T01:12:12.208Z,36.90
2022-12-18T01:14:40.220Z,37.85
2022-12-18T01:17:08.214Z,34.58
2022-12-18T01:19:36.354Z,35.08
2022-12-18T01:22:04.381Z,38.25
2022-12-18T01:24:32.345Z,39.33
2022-12-18T01:27:00.333Z,40.70
2022-12-18T01:29:29.878Z,40.95
2022-12-18T01:31:58.532Z,41.97
2022-12-18T01:34:26.630Z,35.35
2022-12-18T01:36:54.592Z,38.67
2022-12-18T01:39:22.628Z,36.88
2022-12-18T01:42:06.206Z,38.28
2022-12-18T01:45:23.647Z,36.90
2022-12-18T01:47:54.154Z,36.65
2022-12-18T01:50:25.573Z,39.25
2022-12-18T01:52:56.081Z,36.17
2022-12-18T01:55:27.160Z,34.67
2022-12-18T01:57:57.456Z,31.65
2022-12-18T02:00:28.400Z,33.00
2022-12-18T02:02:56.798Z,34.00
2022-12-18T02:05:32.925Z,35.15
2022-12-18T02:08:10.576Z,34.85
2022-12-18T02:10:48.014Z,35.08
2022-12-18T02:13:21.895Z,31.75
2022-12-18T02:16:02.894Z,35.88
2022-12-18T02:18:34.563Z,36.80
2022-12-18T02:21:13.713Z,37.33
2022-12-18T02:23:55.354Z,38.55
2022-12-18T02:26:29.523Z,35.78
2022-12-18T02:29:04.416Z,34.85
2022-12-18T02:31:52.009Z,36.15
2022-12-18T02:34:21.863Z,36.67
2022-12-18T02:36:52.184Z,34.95
2022-12-18T02:39:23.795Z,38.80
2022-12-18T02:41:54.005Z,40.40
2022-12-18T02:44:21.977Z,37.95
2022-12-18T02:46:53.794Z,41.65
2022-12-18T02:49:33.705Z,38.72
2022-12-18T02:52:09.872Z,38.60
2022-12-18T02:54:57.349Z,40.08
2022-12-18T02:57:36.082Z,39.47
2022-12-18T03:00:08.740Z,38.50
2022-12-18T03:02:42.577Z,38.67
2022-12-18T03:05:16.215Z,38.85
2022-12-18T03:07:49.191Z,38.42
2022-12-18T03:10:23.925Z,41.55
2022-12-18T03:12:56.785Z,41.15
2022-12-18T03:15:28.964Z,39.07
2022-12-18T03:18:01.829Z,37.95
2022-12-18T03:20:33.671Z,39.87
2022-12-18T03:23:08.441Z,37.60
2022-12-18T03:25:40.925Z,41.72
2022-12-18T03:28:14.081Z,37.20
2022-12-18T03:30:46.198Z,37.75
2022-12-18T03:33:20.766Z,37.35
2022-12-18T03:35:49.050Z,40.05
2022-12-18T03:38:17.168Z,36.10
2022-12-18T03:40:58.221Z,35.10
2022-12-18T03:43:38.900Z,35.13
2022-12-18T03:46:12.010Z,35.70
2022-12-18T03:48:45.913Z,34.45
2022-12-18T03:51:20.980Z,35.28
2022-12-18T03:53:54.515Z,37.70
2022-12-18T03:56:24.733Z,33.70
2022-12-18T03:58:56.453Z,33.60
2022-12-18T04:01:33.257Z,33.67
2022-12-18T04:04:03.154Z,34.63
2022-12-18T04:06:32.599Z,37.90
2022-12-18T04:09:01.146Z,33.22
2022-12-18T04:11:29.210Z,30.08
2022-12-18T04:14:02.667Z,31.25
2022-12-18T04:16:32.625Z,33.97
2022-12-18T04:19:00.673Z,33.53
2022-12-18T04:21:28.610Z,31.13
2022-12-18T04:23:56.632Z,32.83
2022-12-18T04:26:24.750Z,33.35
2022-12-18T04:28:52.789Z,31.63
2022-12-18T04:31:22.289Z,33.38
2022-12-18T04:33:50.296Z,31.80
2022-12-18T04:36:18.364Z,34.90
2022-12-18T04:38:46.299Z,31.08
2022-12-18T04:41:15.789Z,33.53
2022-12-18T04:43:44.943Z,33.55
2022-12-18T04:46:12.926Z,36.45
2022-12-18T04:48:42.460Z,32.40
2022-12-18T04:51:10.421Z,32.20
2022-12-18T04:53:38.703Z,31.55
2022-12-18T04:56:08.393Z,35.03
2022-12-18T04:58:36.423Z,31.60
2022-12-18T05:01:04.858Z,30.17
2022-12-18T05:03:33.030Z,28.92
2022-12-18T05:06:02.809Z,29.23
2022-12-18T05:08:30.754Z,32.25
2022-12-18T05:11:02.201Z,29.40
2022-12-18T05:13:30.494Z,29.45
2022-12-18T05:15:58.663Z,28.20
2022-12-18T05:18:27.419Z,27.95
2022-12-18T05:20:56.482Z,26.08
2022-12-18T05:23:26.898Z,27.35
2022-12-18T05:25:55.290Z,28.38
2022-12-18T05:28:24.916Z,30.75
2022-12-18T05:30:54.515Z,31.08
2022-12-18T05:33:24.446Z,26.88
2022-12-18T05:35:53.648Z,32.10
2022-12-18T05:38:22.474Z,35.35
2022-12-18T05:40:52.996Z,29.05
2022-12-18T05:43:22.754Z,29.80
2022-12-18T05:45:52.240Z,30.27
2022-12-18T05:48:22.721Z,31.17
2022-12-18T05:50:54.053Z,32.30
2022-12-18T05:53:23.929Z,31.15
2022-12-18T05:55:54.271Z,30.83
2022-12-18T05:58:23.173Z,28.92
2022-12-18T06:00:52.503Z,31.85
2022-12-18T06:03:21.454Z,29.65
2022-12-18T06:05:50.436Z,31.38
2022-12-18T06:08:18.413Z,29.65
2022-12-18T06:10:54.514Z,32.03
2022-12-18T06:13:22.680Z,33.47
2022-12-18T06:15:50.688Z,31.27
2022-12-18T06:18:19.305Z,30.75
2022-12-18T06:20:47.405Z,30.00
2022-12-18T06:23:15.350Z,31.75
2022-12-18T06:25:43.436Z,31.15
2022-12-18T06:28:12.803Z,34.17
2022-12-18T06:30:54.441Z,31.23
2022-12-18T06:33:22.435Z,33.42
2022-12-18T06:35:50.379Z,29.70
2022-12-18T06:38:18.321Z,30.25
2022-12-18T06:40:46.230Z,28.05
2022-12-18T06:43:15.565Z,27.17
2022-12-18T06:45:43.651Z,27.83
2022-12-18T06:48:11.718Z,28.05
2022-12-18T06:50:39.608Z,25.20
2022-12-18T06:53:07.557Z,26.85
2022-12-18T06:55:36.359Z,28.90
2022-12-18T06:58:04.626Z,25.90
2022-12-18T07:00:34.014Z,28.77
2022-12-18T07:03:02.767Z,26.75
2022-12-18T07:05:34.994Z,29.13
2022-12-18T07:08:03.945Z,33.22
2022-12-18T07:10:36.440Z,29.77
2022-12-18T07:13:05.305Z,28.38
2022-12-18T07:15:35.328Z,29.98
2022-12-18T07:18:04.134Z,33.22
2022-12-18T07:20:33.685Z,86.68
2022-12-18T07:23:04.317Z,32.80
2022-12-18T07:25:32.266Z,31.23
2022-12-18T07:28:00.198Z,32.90
2022-12-18T07:30:28.177Z,31.15
2022-12-18T07:32:57.485Z,35.67
2022-12-18T07:35:25.664Z,30.55
2022-12-18T07:37:53.688Z,31.05
2022-12-18T07:40:21.621Z,31.27
2022-12-18T07:42:49.559Z,47.88
2022-12-18T07:45:17.640Z,33.90
2022-12-18T07:47:45.562Z,32.28
2022-12-18T07:50:15.311Z,30.25
2022-12-18T07:52:43.270Z,30.95
2022-12-18T07:55:11.258Z,28.70
2022-12-18T07:57:50.701Z,32.35
2022-12-18T08:00:19.738Z,27.40
2022-12-18T08:02:49.506Z,28.42
2022-12-18T08:05:19.373Z,28.52
2022-12-18T08:07:47.451Z,28.08
2022-12-18T08:10:15.824Z,28.58
2022-12-18T08:12:43.863Z,26.08
2022-12-18T08:15:12.300Z,24.40
2022-12-18T08:17:40.307Z,28.23
2022-12-18T08:20:09.336Z,26.02
2022-12-18T08:22:38.690Z,25.38
2022-12-18T08:25:07.644Z,26.50
2022-12-18T08:27:35.688Z,26.60
2022-12-18T08:30:04.060Z,27.73
2022-12-18T08:32:33.879Z,26.75
2022-12-18T08:35:01.867Z,27.70
2022-12-18T08:37:29.914Z,28.65
2022-12-18T08:39:59.241Z,23.38
2022-12-18T08:42:44.816Z,26.70
2022-12-18T08:45:13.008Z,29.00
2022-12-18T08:47:40.947Z,29.33
2022-12-18T08:50:09.503Z,23.90
2022-12-18T08:52:37.497Z,24.77
2022-12-18T08:55:09.372Z,26.17
2022-12-18T08:57:37.377Z,27.25
2022-12-18T09:00:06.368Z,25.48
2022-12-18T09:02:34.794Z,24.92
2022-12-18T09:05:02.821Z,26.70
2022-12-18T09:07:30.808Z,29.17
2022-12-18T09:09:58.746Z,21.85
2022-12-18T09:12:28.122Z,24.98
2022-12-18T09:14:57.327Z,22.48
2022-12-18T09:17:25.362Z,22.15
2022-12-18T09:19:54.073Z,23.60
2022-12-18T09:22:22.080Z,21.50
2022-12-18T09:24:52.151Z,21.15
2022-12-18T09:27:20.794Z,23.08
2022-12-18T09:29:50.549Z,21.83
2022-12-18T09:32:22.357Z,22.80
2022-12-18T09:34:50.707Z,22.02
2022-12-18T09:37:20.006Z,24.63
2022-12-18T09:39:49.490Z,22.08
2022-12-18T09:42:22.574Z,23.63
2022-12-18T09:44:55.755Z,22.45
2022-12-18T09:47:27.329Z,23.80
2022-12-18T09:49:58.979Z,25.80
2022-12-18T09:52:30.919Z,25.60
2022-12-18T09:55:04.287Z,26.27
2022-12-18T09:57:38.947Z,21.95
2022-12-18T10:00:19.084Z,22.98
2022-12-18T10:02:48.822Z,24.08
2022-12-18T10:05:20.537Z,26.02
2022-12-18T10:07:57.928Z,22.08
2022-12-18T10:10:35.364Z,21.73
2022-12-18T10:13:15.249Z,21.77
2022-12-18T10:15:57.129Z,20.27
2022-12-18T10:18:39.992Z,21.02
2022-12-18T10:21:14.757Z,21.10
2022-12-18T10:23:51.845Z,18.00
2022-12-18T10:26:20.006Z,23.40
2022-12-18T10:28:49.908Z,21.58
2022-12-18T10:31:24.501Z,20.75
2022-12-18T10:33:53.347Z,19.92
2022-12-18T10:36:22.353Z,19.85
2022-12-18T10:38:52.122Z,21.90
2022-12-18T10:41:29.352Z,19.38
2022-12-18T10:44:17.071Z,17.85
2022-12-18T10:46:47.646Z,20.75
2022-12-18T10:49:25.470Z,21.75
2022-12-18T10:52:06.303Z,19.67
2022-12-18T10:54:37.126Z,20.45
2022-12-18T10:57:19.255Z,22.92
2022-12-18T10:59:55.748Z,20.30
2022-12-18T11:02:35.464Z,21.25
2022-12-18T11:05:06.332Z,21.23
2022-12-18T11:07:52.652Z,23.13
2022-12-18T11:10:22.134Z,23.50
2022-12-18T11:12:50.638Z,21.52
2022-12-18T11:15:22.845Z,22.70
2022-12-18T11:17:54.046Z,24.55
2022-12-18T11:20:29.859Z,24.58
2022-12-18T11:22:59.741Z,25.10
2022-12-18T11:25:32.296Z,23.20
2022-12-18T11:28:03.734Z,24.42
2022-12-18T11:30:33.310Z,21.63
2022-12-18T11:33:07.348Z,29.10
2022-12-18T11:35:42.479Z,28.00
2022-12-18T11:38:20.906Z,28.17
2022-12-18T11:40:55.388Z,25.08
2022-12-18T11:43:29.262Z,25.98
2022-12-18T11:46:04.783Z,27.52
2022-12-18T11:48:39.401Z,23.92
2022-12-18T11:51:14.875Z,22.63
2022-12-18T11:53:42.855Z,30.52
2022-12-18T11:56:29.827Z,27.75
2022-12-18T11:59:10.662Z,28.08
2022-12-18T12:01:48.604Z,28.42
2022-12-18T12:04:38.297Z,24.90
2022-12-18T12:07:20.813Z,27.73
2022-12-18T12:09:57.727Z,28.73
2022-12-18T12:12:48.894Z,27.67
2022-12-18T12:15:29.538Z,27.30
2022-12-18T12:18:11.094Z,27.83
2022-12-18T12:20:49.813Z,27.52
2022-12-18T12:23:39.543Z,30.52
2022-12-18T12:26:11.816Z,28.80
2022-12-18T12:28:59.519Z,31.65
2022-12-18T12:31:44.456Z,31.50
2022-12-18T12:34:20.040Z,33.40
2022-12-18T12:37:03.478Z,35.97
2022-12-18T12:39:34.138Z,32.85
2022-12-18T12:42:21.107Z,30.80
2022-12-18T12:44:56.421Z,30.15
2022-12-18T12:47:29.855Z,32.30
2022-12-18T12:50:00.833Z,36.40
2022-12-18T12:52:37.080Z,33.08
2022-12-18T12:55:14.577Z,34.22
2022-12-18T12:57:48.103Z,33.03
2022-12-18T13:00:18.790Z,35.70
2022-12-18T13:02:53.503Z,32.85
2022-12-18T13:05:28.262Z,36.50
2022-12-18T13:08:04.512Z,36.58
2022-12-18T13:10:37.112Z,33.70
2022-12-18T13:13:09.000Z,33.08
2022-12-18T13:15:41.955Z,33.20
2022-12-18T13:18:19.709Z,30.37
2022-12-18T13:20:55.161Z,31.90
2022-12-18T13:23:37.434Z,31.95
2022-12-18T13:26:34.154Z,32.25
2022-12-18T13:29:05.323Z,29.95
2022-12-18T13:32:10.272Z,29.35
2022-12-18T13:34:38.824Z,27.88
2022-12-18T13:37:55.896Z,28.48
2022-12-18T13:40:58.971Z,28.27
2022-12-18T13:43:38.608Z,27.25
2022-12-18T13:46:19.162Z,28.27
2022-12-18T13:48:54.253Z,27.35
2022-12-18T13:51:23.290Z,30.90
2022-12-18T13:53:54.277Z,29.85
2022-12-18T13:56:25.443Z,29.98
2022-12-18T13:59:24.909Z,29.50
2022-12-18T14:01:56.337Z,31.02
2022-12-18T14:04:28.417Z,32.72
2022-12-18T14:07:01.089Z,30.63
2022-12-18T14:09:32.751Z,31.38
2022-12-18T14:12:24.957Z,31.83
2022-12-18T14:14:55.607Z,29.60
2022-12-18T14:17:25.255Z,29.35
2022-12-18T14:19:53.961Z,28.73
2022-12-18T14:22:28.746Z,28.15
2022-12-18T14:25:16.137Z,28.40
2022-12-18T14:27:46.050Z,29.50
2022-12-18T14:30:29.562Z,30.88
2022-12-18T14:33:05.657Z,30.33
2022-12-18T14:35:34.140Z,30.33
2022-12-18T14:38:27.058Z,33.15
2022-12-18T14:40:56.787Z,33.05
2022-12-18T14:43:25.007Z,32.78
2022-12-18T14:45:54.840Z,35.15
2022-12-18T14:48:26.917Z,32.08
2022-12-18T14:51:00.601Z,37.65
2022-12-18T14:53:37.284Z,36.15
2022-12-18T14:56:13.140Z,36.63
2022-12-18T14:58:41.428Z,38.72
2022-12-18T15:01:10.815Z,40.13
2022-12-18T15:03:45.863Z,41.30
2022-12-18T15:06:19.722Z,40.13
2022-12-18T15:08:47.711Z,43.53
2022-12-18T15:11:30.736Z,43.67
2022-12-18T15:14:01.228Z,45.17
2022-12-18T15:16:31.278Z,42.42
2022-12-18T15:18:59.328Z,42.05
2022-12-18T15:21:31.621Z,42.67
2022-12-18T15:24:01.032Z,41.05
2022-12-18T15:26:39.685Z,44.63
2022-12-18T15:29:11.379Z,46.97
2022-12-18T15:31:44.949Z,50.10
2022-12-18T15:34:21.574Z,55.58
2022-12-18T15:36:49.681Z,52.00
2022-12-18T15:39:17.706Z,47.60
2022-12-18T15:42:05.873Z,47.03
2022-12-18T15:44:32.954Z,48.22
2022-12-18T15:47:02.342Z,44.65
2022-12-18T15:49:30.324Z,48.25
2022-12-18T15:52:00.851Z,46.45
2022-12-18T15:54:46.594Z,49.25
2022-12-18T15:57:27.603Z,44.13
2022-12-18T15:59:58.989Z,46.25
2022-12-18T16:02:29.495Z,45.13
2022-12-18T16:04:58.238Z,47.42
2022-12-18T16:07:29.134Z,46.33
2022-12-18T16:09:59.052Z,42.67
2022-12-18T16:12:29.135Z,46.30
2022-12-18T16:15:03.050Z,44.55
2022-12-18T16:20:00.912Z,45.28
2022-12-18T16:22:30.934Z,47.13
2022-12-18T16:25:00.128Z,45.95
2022-12-18T16:27:28.305Z,47.30
2022-12-18T16:29:56.363Z,47.55
2022-12-18T16:32:24.865Z,53.20
2022-12-18T16:34:54.209Z,53.13
2022-12-18T16:37:22.156Z,53.95
2022-12-18T16:39:50.078Z,64.93
2022-12-18T16:42:21.182Z,56.60
2022-12-18T16:44:50.531Z,63.10
2022-12-18T16:47:19.212Z,54.75
2022-12-18T16:49:47.300Z,54.40
2022-12-18T16:52:16.686Z,48.00
2022-12-18T16:54:46.191Z,43.55
2022-12-18T16:57:16.098Z,51.42
2022-12-18T16:59:44.412Z,50.67
2022-12-18T17:02:17.205Z,45.55
2022-12-18T17:04:47.847Z,44.88
2022-12-18T17:07:17.562Z,45.60
2022-12-18T17:09:45.556Z,42.00
2022-12-18T17:12:13.688Z,46.58
2022-12-18T17:14:41.729Z,50.05
2022-12-18T17:17:25.139Z,47.58
2022-12-18T17:19:53.702Z,44.95
2022-12-18T17:22:24.276Z,49.20
2022-12-18T17:24:52.343Z,52.78
2022-12-18T17:27:20.407Z,46.78
2022-12-18T17:29:49.129Z,45.92
2022-12-18T17:32:17.448Z,45.67
2022-12-18T17:34:45.406Z,46.33
2022-12-18T17:37:13.403Z,47.00
2022-12-18T17:39:43.166Z,47.35
2022-12-18T17:42:14.852Z,46.15
2022-12-18T17:44:43.680Z,43.05
2022-12-18T17:47:13.086Z,47.05
2022-12-18T17:49:41.262Z,49.88
2022-12-18T17:52:09.392Z,51.65
2022-12-18T17:54:39.959Z,45.65
2022-12-18T17:57:09.583Z,50.17
2022-12-18T17:59:37.641Z,50.05
2022-12-18T18:02:05.832Z,44.58
2022-12-18T18:04:34.454Z,48.78
2022-12-18T18:07:02.436Z,42.15
2022-12-18T18:09:30.420Z,45.97
2022-12-18T18:12:15.760Z,45.38
2022-12-18T18:14:45.268Z,43.97
2022-12-18T18:17:13.206Z,45.85
2022-12-18T18:19:42.179Z,42.53
2022-12-18T18:22:12.278Z,40.75
2022-12-18T18:24:43.544Z,44.08
2022-12-18T18:27:11.597Z,42.97
2022-12-18T18:29:40.171Z,42.17
2022-12-18T18:32:09.583Z,45.22
2022-12-18T18:34:37.714Z,42.15
2022-12-18T18:37:06.021Z,42.58
2022-12-18T18:39:34.056Z,41.40
2022-12-18T18:42:02.034Z,42.65
2022-12-18T18:44:30.485Z,45.33
2022-12-18T18:47:00.102Z,44.20
2022-12-18T18:49:31.908Z,47.50
2022-12-18T18:52:00.433Z,44.67
2022-12-18T18:54:29.478Z,48.58
2022-12-18T18:57:19.868Z,43.65
2022-12-18T18:59:47.193Z,47.72
2022-12-18T19:02:16.614Z,44.65
2022-12-18T19:04:47.022Z,45.88
2022-12-18T19:07:28.113Z,46.72
2022-12-18T19:09:58.131Z,46.38
2022-12-18T19:12:49.174Z,45.20
2022-12-18T19:15:17.099Z,49.83
2022-12-18T19:17:47.410Z,44.58
2022-12-18T19:20:17.555Z,44.55
2022-12-18T19:22:47.979Z,45.10
2022-12-18T19:25:26.818Z,50.75
2022-12-18T19:28:12.059Z,48.33
2022-12-18T19:30:54.512Z,47.30
2022-12-18T19:33:42.442Z,47.13
2022-12-18T19:36:19.360Z,53.28
2022-12-18T19:38:47.423Z,49.67
2022-12-18T19:41:16.290Z,56.13
2022-12-18T19:43:44.789Z,47.20
2022-12-18T19:46:15.516Z,46.80
2022-12-18T19:48:44.440Z,48.75
2022-12-18T19:51:16.991Z,51.17
2022-12-18T19:53:45.469Z,48.72
2022-12-18T19:56:15.765Z,49.00
2022-12-18T19:58:44.796Z,50.20
2022-12-18T20:01:13.744Z,61.17
2022-12-18T20:03:49.133Z,55.75
2022-12-18T20:06:26.703Z,51.95
2022-12-18T20:11:28.385Z,58.08
2022-12-18T20:13:56.343Z,58.80
2022-12-18T20:16:24.587Z,61.63
2022-12-18T20:18:52.615Z,62.80
2022-12-18T20:21:22.373Z,65.40
2022-12-18T20:23:50.344Z,61.92
2022-12-18T20:26:18.425Z,66.82
2022-12-18T20:28:46.525Z,64.30
2022-12-18T20:31:14.830Z,64.15
2022-12-18T20:33:46.327Z,60.55
2022-12-18T20:38:51.018Z,58.88
2022-12-18T20:41:21.451Z,57.97
2022-12-18T20:43:49.802Z,54.78
2022-12-18T20:46:18.746Z,55.25
2022-12-18T20:48:47.815Z,52.17
2022-12-18T20:51:17.991Z,53.95
2022-12-18T20:53:46.977Z,52.85
2022-12-18T20:56:21.184Z,58.80
2022-12-18T20:58:50.551Z,59.60
2022-12-18T21:01:24.812Z,59.70
2022-12-18T21:03:53.312Z,64.07
2022-12-18T21:06:22.878Z,62.53
2022-12-18T21:08:50.911Z,55.92
2022-12-18T21:11:42.819Z,58.15
2022-12-18T21:14:13.082Z,57.22
2022-12-18T21:16:43.011Z,57.92
2022-12-18T21:19:11.634Z,61.47
2022-12-18T21:21:39.944Z,60.25
2022-12-18T21:24:09.735Z,58.22
2022-12-18T21:26:45.438Z,61.47
2022-12-18T21:29:15.866Z,58.92
2022-12-18T21:31:45.460Z,60.03
2022-12-18T21:34:17.780Z,57.92
2022-12-18T21:36:46.263Z,59.33
2022-12-18T21:39:15.962Z,56.47
2022-12-18T21:42:03.754Z,58.70
2022-12-18T21:44:35.701Z,49.90
2022-12-18T21:47:21.487Z,55.10
2022-12-18T21:49:52.044Z,54.75
2022-12-18T21:52:21.574Z,54.22
2022-12-18T21:54:55.837Z,62.33
2022-12-18T21:57:25.250Z,57.60
2022-12-18T21:59:54.723Z,60.88
2022-12-18T22:02:26.130Z,60.47
2022-12-18T22:04:54.193Z,61.83
2022-12-18T22:07:22.639Z,56.28
2022-12-18T22:09:51.180Z,62.22
2022-12-18T22:12:35.829Z,62.40
2022-12-18T22:15:21.818Z,57.33
2022-12-18T22:17:56.931Z,56.92
2022-12-18T22:20:29.512Z,56.00
2022-12-18T22:22:58.269Z,58.50
2022-12-18T22:25:26.227Z,53.75
2022-12-18T22:28:08.052Z,55.80
2022-12-18T22:30:37.456Z,51.50
2022-12-18T22:33:05.539Z,50.88
2022-12-18T22:35:33.416Z,52.08
2022-12-18T22:38:02.677Z,53.28
2022-12-18T22:40:31.312Z,49.33
2022-12-18T22:42:59.399Z,49.85
2022-12-18T22:45:27.967Z,50.00
2022-12-18T22:47:57.388Z,51.45
2022-12-18T22:50:25.311Z,48.88
2022-12-18T22:52:53.277Z,43.35
2022-12-18T22:55:21.258Z,40.92
2022-12-18T22:57:50.453Z,40.13
2022-12-18T23:00:24.157Z,42.72
2022-12-18T23:02:59.218Z,48.75
2022-12-18T23:05:30.603Z,42.47
2022-12-18T23:07:59.574Z,50.90
2022-12-18T23:10:28.611Z,52.15
2022-12-18T23:12:56.587Z,49.53
2022-12-18T23:15:27.731Z,55.97
2022-12-18T23:17:57.367Z,57.17
2022-12-18T23:20:25.986Z,50.78
2022-12-18T23:22:55.441Z,43.63
2022-12-18T23:25:23.679Z,51.08
2022-12-18T23:27:51.823Z,43.05
2022-12-18T23:30:20.290Z,49.28
2022-12-18T23:32:48.423Z,49.45
2022-12-18T23:35:16.472Z,48.28
2022-12-18T23:38:00.726Z,53.00
2022-12-18T23:40:31.122Z,55.92
2022-12-18T23:43:00.320Z,55.70
2022-12-18T23:45:28.275Z,52.10
2022-12-18T23:47:56.238Z,58.78
2022-12-18T23:50:29.408Z,59.10
2022-12-18T23:55:39.852Z,54.97
2022-12-18T23:58:08.735Z,56.13
